Petrified Forest Natl Park, Arizona
Current Conditions -  °F | °C
As of 10:54 AM on Wednesday 26 Nov 2014 (Local Time) from KSJN Reporting Station
Clear Clear  
Wind Chill: 48°   Ceiling: Unl
Heat Index: 48°   Visibility: 10mi
Dew Point: 11°   Wind: 3mph
Humidity: 22%   Direction: NA
Pressure: 30.44"   Gusts: NA
Location:  34.92°N, 109.82°W
Report Text: KSJN 261754Z AUTO VRB03KT 10SM CLR 09/M12 A3044 RMK AO2 SLP288 T00891117 10089 21078 50002
Loading
Personal Weather Stations






























Interactive Weather Map New forecast layout! Learn more

10-Day Weather Forecast

Advertisements
Track Severe Weather on mobile